Time;durP1;ratioP1;P1;durP2;ratioP2;P2;SDS_P1;SDS_P2;PMS_P1;PMS_P2;Temp;Humidity;BMP_temperature;BMP_pressure;BME280_temperature;BME280_humidity;BME280_pressure;Samples;Min_cycle;Max_cycle;Signal;HPM_P1;HPM_P2
2022/04/04 00:00:07;;;;;;;16.30;13.10;;;;;;;0.55;69.16;99092.31;5093042;28;20024;-46
2022/04/04 00:02:33;;;;;;;15.75;12.40;;;;;;;0.49;69.03;99091.03;5091654;28;20035;-47
2022/04/04 00:04:58;;;;;;;15.85;13.65;;;;;;;0.46;68.55;99093.06;5092952;28;20024;-47
2022/04/04 00:07:25;;;;;;;16.88;13.18;;;;;;;0.44;68.56;99095.75;5092859;28;20393;-47
2022/04/04 00:09:51;;;;;;;13.73;11.40;;;;;;;0.41;68.82;99097.78;5092878;28;20545;-47
2022/04/04 00:12:17;;;;;;;14.95;11.85;;;;;;;0.36;68.78;99103.31;5092699;28;20024;-46
2022/04/04 00:14:43;;;;;;;17.75;13.32;;;;;;;0.29;69.27;99107.34;5091413;28;20024;-47
2022/04/04 00:17:09;;;;;;;17.15;13.80;;;;;;;0.25;69.44;99101.59;5092701;28;20020;-47
2022/04/04 00:19:35;;;;;;;16.17;14.43;;;;;;;0.30;70.33;99106.38;5092697;28;20141;-46
2022/04/04 00:22:01;;;;;;;17.15;14.15;;;;;;;0.31;69.81;99108.03;5092611;28;20103;-47
2022/04/04 00:24:27;;;;;;;18.23;14.07;;;;;;;0.29;70.81;99104.75;5091250;28;20031;-47
2022/04/04 00:26:53;;;;;;;17.15;13.48;;;;;;;0.29;70.49;99103.00;5091218;28;20054;-46
2022/04/04 00:29:19;;;;;;;17.55;13.93;;;;;;;0.29;70.46;99107.34;5092323;28;20032;-47
2022/04/04 00:31:45;;;;;;;15.85;13.13;;;;;;;0.23;69.88;99110.41;5092399;28;20512;-47
2022/04/04 00:34:11;;;;;;;19.30;14.70;;;;;;;0.16;70.42;99108.34;5092465;28;20020;-47
2022/04/04 00:36:38;;;;;;;18.45;14.57;;;;;;;0.12;70.48;99111.25;5092179;28;20028;-47
2022/04/04 00:39:04;;;;;;;18.55;14.90;;;;;;;0.10;70.68;99108.81;5092378;28;20383;-48
2022/04/04 00:41:30;;;;;;;19.60;14.13;;;;;;;0.13;70.71;99115.50;5090983;28;20039;-48
2022/04/04 00:43:56;;;;;;;17.20;13.95;;;;;;;0.17;70.83;99112.53;5092308;28;20024;-49
2022/04/04 00:46:21;;;;;;;16.88;15.00;;;;;;;0.22;70.61;99108.75;5090873;28;20028;-48
2022/04/04 00:48:47;;;;;;;18.58;14.93;;;;;;;0.25;70.97;99113.69;5092254;28;20020;-48
2022/04/04 00:51:14;;;;;;;16.75;13.70;;;;;;;0.24;70.70;99109.47;5092071;28;20020;-48
2022/04/04 00:53:40;;;;;;;17.90;14.43;;;;;;;0.23;71.63;99110.41;5092103;28;20034;-48
2022/04/04 00:56:08;;;;;;;18.85;14.40;;;;;;;0.23;71.12;99110.41;5092087;28;20091;-48
2022/04/04 00:58:38;;;;;;;16.85;14.38;;;;;;;0.22;71.72;99108.75;5090721;28;20123;-47
2022/04/04 01:01:03;;;;;;;19.23;14.95;;;;;;;0.20;71.87;99103.72;5092075;28;20066;-48
2022/04/04 01:03:29;;;;;;;17.25;14.43;;;;;;;0.18;71.06;99101.28;5090679;28;20044;-48
2022/04/04 01:05:57;;;;;;;16.67;14.15;;;;;;;0.17;71.47;99104.78;5091966;28;20053;-47
2022/04/04 01:08:24;;;;;;;19.05;14.43;;;;;;;0.15;71.70;99098.13;5091964;28;20073;-46
2022/04/04 01:10:50;;;;;;;17.27;13.30;;;;;;;0.19;71.43;99099.50;5090474;28;20020;-47
2022/04/04 01:13:17;;;;;;;16.42;14.05;;;;;;;0.23;71.68;99102.69;5091961;28;20020;-47
2022/04/04 01:15:43;;;;;;;16.88;14.38;;;;;;;0.23;70.92;99100.09;5091879;28;20028;-46
2022/04/04 01:18:10;;;;;;;16.05;13.35;;;;;;;0.23;71.75;99100.09;5090533;28;20031;-46
2022/04/04 01:20:36;;;;;;;16.80;13.63;;;;;;;0.24;71.45;99099.13;5091844;28;20059;-45
2022/04/04 01:23:05;;;;;;;16.27;14.35;;;;;;;0.22;71.36;99098.44;5091855;28;20028;-47
2022/04/04 01:25:32;;;;;;;18.60;14.48;;;;;;;0.23;71.91;99095.75;5091814;28;20024;-47
2022/04/04 01:28:00;;;;;;;19.35;15.02;;;;;;;0.21;71.25;99092.47;5092082;28;20026;-47
2022/04/04 01:30:27;;;;;;;18.88;14.32;;;;;;;0.14;71.35;99092.16;5091546;28;20044;-48
2022/04/04 01:32:53;;;;;;;18.20;13.80;;;;;;;0.13;71.60;99095.66;5090317;28;20077;-48
2022/04/04 01:35:20;;;;;;;16.55;14.40;;;;;;;0.09;71.82;99091.69;5091711;28;20085;-48
2022/04/04 01:37:47;;;;;;;15.85;14.07;;;;;;;0.10;72.34;99095.94;5091750;28;20103;-47
2022/04/04 01:40:14;;;;;;;15.80;13.00;;;;;;;0.13;72.27;99094.84;5090287;28;20393;-47
2022/04/04 01:42:40;;;;;;;18.25;14.95;;;;;;;0.12;72.00;99096.63;5091626;28;20052;-48
2022/04/04 01:45:09;;;;;;;18.67;15.18;;;;;;;0.08;71.82;99099.56;5090266;28;20032;-47
2022/04/04 01:47:35;;;;;;;17.02;14.00;;;;;;;0.02;71.59;99098.31;5092329;28;20505;-48
2022/04/04 01:50:01;;;;;;;17.67;14.93;;;;;;;-0.01;72.26;99099.34;5094549;28;20401;-47
2022/04/04 01:52:27;;;;;;;16.40;14.55;;;;;;;0.02;72.38;99093.16;5095475;28;20502;-47
2022/04/04 01:54:53;;;;;;;18.25;14.57;;;;;;;0.02;72.57;99093.16;5094190;28;20052;-48
2022/04/04 01:57:19;;;;;;;17.15;14.55;;;;;;;-0.01;72.50;99093.38;5095395;28;20036;-47
2022/04/04 01:59:45;;;;;;;16.70;13.70;;;;;;;-0.01;72.82;99085.63;5095413;28;20012;-48
2022/04/04 02:02:11;;;;;;;20.45;14.82;;;;;;;-0.05;73.02;99082.47;5094085;28;20085;-48
2022/04/04 02:04:37;;;;;;;16.52;14.73;;;;;;;-0.06;72.71;99087.75;5095228;28;20028;-47
2022/04/04 02:07:03;;;;;;;16.55;14.23;;;;;;;-0.09;72.43;99085.44;5095251;28;20028;-48
2022/04/04 02:09:29;;;;;;;17.30;13.95;;;;;;;-0.17;72.27;99082.66;5095213;28;20050;-47
2022/04/04 02:11:55;;;;;;;19.35;15.98;;;;;;;-0.25;72.21;99096.94;5093671;28;20036;-48
2022/04/04 02:14:20;;;;;;;18.20;14.63;;;;;;;-0.28;72.53;99092.06;5093750;28;20059;-48
2022/04/04 02:16:47;;;;;;;20.20;14.85;;;;;;;-0.30;73.16;99096.50;5093748;28;20490;-47
2022/04/04 02:19:13;;;;;;;16.60;14.00;;;;;;;-0.30;73.29;99088.78;5094967;28;20028;-48
2022/04/04 02:21:38;;;;;;;19.90;16.20;;;;;;;-0.30;72.95;99091.34;5094923;28;20028;-47
2022/04/04 02:24:04;;;;;;;18.25;15.43;;;;;;;-0.27;73.45;99093.69;5094957;28;20118;-47
2022/04/04 02:26:31;;;;;;;20.40;13.95;;;;;;;-0.25;73.68;99089.22;5094843;28;20020;-46
2022/04/04 02:28:56;;;;;;;18.38;15.02;;;;;;;-0.26;73.39;99091.94;5093261;28;20082;-47
2022/04/04 02:31:22;;;;;;;16.10;13.90;;;;;;;-0.29;73.26;99095.56;5094713;28;20509;-46
2022/04/04 02:33:48;;;;;;;19.48;15.23;;;;;;;-0.34;73.28;99100.28;5094739;28;20024;-46
2022/04/04 02:36:13;;;;;;;18.30;13.60;;;;;;;-0.35;73.33;99096.03;5094700;28;20028;-48
2022/04/04 02:38:39;;;;;;;18.42;14.73;;;;;;;-0.39;73.43;99089.47;5094677;28;20028;-46
2022/04/04 02:41:05;;;;;;;21.17;14.70;;;;;;;-0.43;73.54;99093.25;5093311;28;20058;-46
2022/04/04 02:43:31;;;;;;;19.00;14.68;;;;;;;-0.47;73.81;99090.09;5093278;28;20568;-47
2022/04/04 02:45:58;;;;;;;17.48;13.50;;;;;;;-0.51;73.25;99093.84;5094509;28;20062;-47
2022/04/04 02:48:24;;;;;;;18.40;14.93;;;;;;;-0.52;73.17;99099.13;5094485;28;20094;-47
2022/04/04 02:50:50;;;;;;;17.73;13.93;;;;;;;-0.53;73.89;99094.91;5094318;28;20501;-47
2022/04/04 02:53:16;;;;;;;18.08;13.73;;;;;;;-0.58;73.69;99095.28;5093097;28;20543;-47
2022/04/04 02:58:27;;;;;;;19.42;13.88;;;;;;;-0.59;74.12;99092.81;5094485;28;20093;-47
2022/04/04 03:00:53;;;;;;;21.77;14.13;;;;;;;-0.62;74.11;99094.69;5094268;28;20025;-47
2022/04/04 03:03:19;;;;;;;19.42;14.60;;;;;;;-0.58;74.28;99099.59;5094163;28;20065;-48
2022/04/04 03:05:46;;;;;;;25.73;14.30;;;;;;;-0.57;73.66;99096.91;5094158;28;20024;-48
2022/04/04 03:08:12;;;;;;;18.35;13.13;;;;;;;-0.57;73.56;99093.50;5094145;28;20020;-47
2022/04/04 03:10:38;;;;;;;17.50;14.50;;;;;;;-0.56;73.59;99097.72;5094057;28;20383;-47
2022/04/04 03:13:05;;;;;;;18.23;13.52;;;;;;;-0.53;74.31;99089.75;5092664;28;20034;-46
2022/04/04 03:15:34;;;;;;;18.45;13.18;;;;;;;-0.51;73.97;99086.09;5093997;28;20432;-47
2022/04/04 03:18:00;;;;;;;16.52;13.40;;;;;;;-0.47;73.96;99091.84;5094000;28;20016;-48
2022/04/04 03:20:27;;;;;;;16.80;12.85;;;;;;;-0.43;73.97;99088.91;5093866;28;20509;-46
2022/04/04 03:22:55;;;;;;;17.58;13.43;;;;;;;-0.39;74.36;99094.66;5093877;28;20035;-47
2022/04/04 03:25:21;;;;;;;19.90;13.82;;;;;;;-0.41;73.71;99096.53;5093774;28;20039;-47
2022/04/04 03:27:48;;;;;;;23.90;12.35;;;;;;;-0.50;73.62;99100.66;5093758;28;20016;-47
2022/04/04 03:30:19;;;;;;;18.58;12.82;;;;;;;-0.57;74.35;99094.31;5092095;28;20040;-48
2022/04/04 03:32:46;;;;;;;24.65;14.25;;;;;;;-0.62;74.11;99099.03;5092319;28;20043;-47
2022/04/04 03:35:16;;;;;;;42.63;14.88;;;;;;;-0.68;73.72;99086.63;5093529;28;20543;-47
2022/04/04 03:37:44;;;;;;;44.05;13.20;;;;;;;-0.69;74.02;99090.94;5092206;28;20085;-46
2022/04/04 03:40:14;;;;;;;29.05;13.82;;;;;;;-0.73;73.80;99096.44;5093443;28;20020;-47
2022/04/04 03:42:42;;;;;;;27.52;13.73;;;;;;;-0.79;74.33;99102.88;5092134;28;20027;-47
2022/04/04 03:45:11;;;;;;;24.88;12.98;;;;;;;-0.84;74.05;99094.69;5093298;28;20031;-47
2022/04/04 03:47:37;;;;;;;28.40;15.75;;;;;;;-0.89;74.34;99102.75;5093287;28;20027;-47
2022/04/04 03:50:05;;;;;;;25.52;14.85;;;;;;;-0.95;74.93;99097.25;5091916;28;20559;-47
2022/04/04 03:52:31;;;;;;;25.85;15.82;;;;;;;-0.97;74.33;99099.13;5093153;28;20032;-48
2022/04/04 03:54:56;;;;;;;29.85;14.90;;;;;;;-0.99;74.31;99095.84;5093166;28;20052;-48
2022/04/04 03:57:22;;;;;;;24.02;14.57;;;;;;;-1.02;74.92;99100.31;5093044;28;20054;-47
2022/04/04 03:59:48;;;;;;;42.50;15.57;;;;;;;-1.04;74.57;99101.38;5093130;28;20095;-47
2022/04/04 04:02:14;;;;;;;27.02;15.05;;;;;;;-1.04;74.79;99109.91;5091655;28;20028;-48
2022/04/04 04:04:40;;;;;;;35.80;13.82;;;;;;;-1.03;74.72;99106.41;5092967;28;20024;-47
2022/04/04 04:07:10;;;;;;;27.08;13.50;;;;;;;-1.04;74.66;99099.59;5092945;28;20035;-48
2022/04/04 04:09:36;;;;;;;32.53;12.90;;;;;;;-1.01;75.05;99106.28;5093215;28;20020;-47
2022/04/04 04:12:03;;;;;;;28.73;13.27;;;;;;;-1.04;75.38;99103.94;5092277;28;20041;-46
2022/04/04 04:14:28;;;;;;;34.65;14.70;;;;;;;-1.01;74.73;99106.28;5091547;28;20028;-47
2022/04/04 04:16:54;;;;;;;28.38;14.05;;;;;;;-0.98;75.00;99100.91;5092844;28;20020;-47
2022/04/04 04:22:04;;;;;;;23.55;13.00;;;;;;;-0.98;74.47;99108.63;5092736;28;20416;-47
2022/04/04 04:24:30;;;;;;;26.08;13.23;;;;;;;-0.98;74.92;99105.25;5092658;28;20099;-47
2022/04/04 04:26:56;;;;;;;33.60;14.52;;;;;;;-0.99;75.09;99104.41;5091295;28;20107;-49
2022/04/04 04:29:22;;;;;;;23.20;13.52;;;;;;;-1.03;74.60;99105.56;5092340;28;20044;-49
2022/04/04 04:31:47;;;;;;;24.13;13.57;;;;;;;-1.08;74.89;99099.97;5091123;28;20489;-47
2022/04/04 04:34:13;;;;;;;30.00;13.60;;;;;;;-1.09;75.46;99100.88;5092434;28;20020;-47
2022/04/04 04:36:39;;;;;;;24.63;12.98;;;;;;;-1.11;75.10;99097.59;5092450;28;20022;-48
2022/04/04 04:39:08;;;;;;;27.80;14.23;;;;;;;-1.16;75.03;99092.00;5092357;28;20043;-46
2022/04/04 04:41:34;;;;;;;25.85;14.45;;;;;;;-1.18;75.01;99101.59;5092334;28;20371;-47
2022/04/04 04:44:05;;;;;;;26.23;13.60;;;;;;;-1.22;75.67;99101.00;5090959;28;20567;-47
2022/04/04 04:46:31;;;;;;;21.75;13.98;;;;;;;-1.25;75.14;99096.91;5092311;28;20024;-47
2022/04/04 04:48:57;;;;;;;26.35;13.57;;;;;;;-1.29;75.23;99100.66;5092268;28;20024;-47
2022/04/04 04:51:23;;;;;;;26.05;14.80;;;;;;;-1.31;75.67;99104.25;5092056;28;20028;-47
2022/04/04 04:53:49;;;;;;;26.30;14.73;;;;;;;-1.38;75.46;99106.47;5092156;28;20100;-47
2022/04/04 04:56:15;;;;;;;23.30;14.65;;;;;;;-1.38;75.20;99108.22;5092072;28;20065;-46
2022/04/04 04:58:41;;;;;;;24.27;14.65;;;;;;;-1.39;75.96;99107.38;5090830;28;20081;-47
2022/04/04 05:01:07;;;;;;;21.45;13.38;;;;;;;-1.38;75.87;99109.03;5092065;28;20020;-47
2022/04/04 05:03:33;;;;;;;19.90;13.40;;;;;;;-1.37;75.52;99112.44;5092071;28;20546;-47
2022/04/04 05:05:59;;;;;;;43.83;17.10;;;;;;;-1.38;75.40;99105.66;5091962;28;20024;-46
2022/04/04 05:08:25;;;;;;;21.95;15.02;;;;;;;-1.39;76.05;99109.97;5091935;28;20034;-48
2022/04/04 05:10:52;;;;;;;24.23;13.63;;;;;;;-1.38;75.60;99123.69;5090555;28;20449;-47
2022/04/04 05:13:18;;;;;;;18.55;13.88;;;;;;;-1.37;76.00;99117.56;5091905;28;20028;-46
2022/04/04 05:15:44;;;;;;;19.90;15.98;;;;;;;-1.39;76.18;99119.44;5091897;28;20016;-47
2022/04/04 05:18:10;;;;;;;24.45;15.52;;;;;;;-1.40;75.66;99123.78;5091852;28;20074;-47
2022/04/04 05:20:35;;;;;;;21.23;13.60;;;;;;;-1.37;76.32;99118.38;5090521;28;20528;-47
2022/04/04 05:23:01;;;;;;;29.02;17.73;;;;;;;-1.33;75.98;99124.94;5093464;28;20424;-47
2022/04/04 05:25:27;;;;;;;19.55;14.45;;;;;;;-1.32;75.90;99123.22;5096039;28;20020;-48
2022/04/04 05:27:55;;;;;;;30.85;15.93;;;;;;;-1.26;76.38;99131.28;5094728;28;20059;-47
2022/04/04 05:30:21;;;;;;;24.33;16.05;;;;;;;-1.19;75.80;99131.66;5095728;28;20044;-47
2022/04/04 05:32:47;;;;;;;21.98;15.70;;;;;;;-1.14;75.84;99126.19;5094518;28;20031;-48
2022/04/04 05:35:15;;;;;;;24.38;15.73;;;;;;;-1.08;75.75;99134.25;5095867;28;20077;-47
2022/04/04 05:37:41;;;;;;;24.17;15.55;;;;;;;-0.92;75.79;99135.69;5095895;28;20028;-46
2022/04/04 05:40:09;;;;;;;24.98;14.60;;;;;;;-0.71;75.54;99143.53;5094406;28;20056;-47
2022/04/04 05:42:34;;;;;;;22.95;15.63;;;;;;;-0.58;75.69;99144.25;5094395;28;20028;-47
2022/04/04 05:45:00;;;;;;;19.02;15.48;;;;;;;-0.35;75.58;99147.63;5095777;28;20031;-46
2022/04/04 05:47:27;;;;;;;17.63;12.75;;;;;;;0.07;74.94;99139.22;5095626;28;20024;-48
2022/04/04 05:49:53;;;;;;;27.55;13.48;;;;;;;0.90;74.41;99137.66;5094274;28;20108;-48
2022/04/04 05:52:23;;;;;;;16.23;11.60;;;;;;;1.84;72.96;99134.88;5095477;28;20489;-47
2022/04/04 05:54:57;;;;;;;16.08;11.18;;;;;;;2.83;71.91;99139.94;5095500;28;20062;-48
2022/04/04 05:57:31;;;;;;;20.98;10.95;;;;;;;3.89;69.59;99130.91;5095495;28;20026;-47
2022/04/04 05:59:57;;;;;;;13.48;9.90;;;;;;;4.75;67.83;99127.75;5094204;28;20409;-47
2022/04/04 06:02:26;;;;;;;20.50;9.80;;;;;;;5.38;65.81;99134.47;5095361;28;20512;-47
2022/04/04 06:04:53;;;;;;;21.25;11.13;;;;;;;5.56;64.40;99131.78;5095373;28;20024;-47
2022/04/04 06:07:19;;;;;;;21.42;10.90;;;;;;;5.72;63.39;99141.44;5093913;28;20028;-48
2022/04/04 06:09:45;;;;;;;18.15;9.55;;;;;;;5.80;63.02;99138.84;5095281;28;20026;-48
2022/04/04 06:12:11;;;;;;;18.13;11.27;;;;;;;5.93;62.48;99145.41;5095046;28;20024;-46
2022/04/04 06:14:37;;;;;;;21.67;10.50;;;;;;;5.92;61.54;99147.19;5094071;28;20043;-48
2022/04/04 06:17:07;;;;;;;17.02;9.98;;;;;;;5.90;61.58;99143.13;5095101;28;20020;-48
2022/04/04 06:19:34;;;;;;;21.65;10.60;;;;;;;6.06;60.96;99152.81;5095065;28;20028;-48
2022/04/04 06:22:01;;;;;;;20.45;10.18;;;;;;;6.24;60.03;99160.47;5095226;28;20032;-49
2022/04/04 06:24:28;;;;;;;21.42;9.80;;;;;;;6.34;58.73;99164.56;5093641;28;20489;-48
2022/04/04 06:26:53;;;;;;;21.30;10.93;;;;;;;6.45;58.72;99160.81;5093865;28;20066;-48
2022/04/04 06:29:19;;;;;;;15.07;10.30;;;;;;;6.72;58.33;99162.31;5094571;28;20063;-48
2022/04/04 06:31:46;;;;;;;22.25;10.68;;;;;;;7.15;56.79;99162.09;5094763;28;20485;-47
2022/04/04 06:34:12;;;;;;;23.45;10.70;;;;;;;7.15;56.17;99164.72;5094310;28;20024;-48
2022/04/04 06:36:38;;;;;;;18.17;10.25;;;;;;;7.09;56.32;99162.78;5094756;28;20483;-48
2022/04/04 06:39:05;;;;;;;24.45;11.20;;;;;;;7.14;56.61;99165.69;5094704;28;20016;-48
2022/04/04 06:41:31;;;;;;;23.98;10.00;;;;;;;7.69;55.58;99164.06;5094645;28;20375;-48
2022/04/04 06:43:58;;;;;;;22.80;10.30;;;;;;;7.96;54.44;99163.59;5094589;28;20069;-48
2022/04/04 06:46:25;;;;;;;23.75;10.38;;;;;;;8.49;54.11;99169.03;5094591;28;20081;-49
2022/04/04 06:48:52;;;;;;;22.88;11.02;;;;;;;8.82;53.06;99166.16;5094525;28;20021;-47
2022/04/04 06:51:19;;;;;;;27.48;11.07;;;;;;;8.82;51.63;99162.72;5094351;28;20028;-48
2022/04/04 06:53:45;;;;;;;16.77;9.93;;;;;;;8.72;51.67;99169.00;5094372;28;20054;-48
2022/04/04 06:56:12;;;;;;;16.60;9.95;;;;;;;8.52;50.64;99165.25;5094307;28;20024;-48
2022/04/04 06:58:38;;;;;;;36.20;10.25;;;;;;;8.19;50.45;99170.69;5094328;28;20024;-48
2022/04/04 07:01:05;;;;;;;25.45;9.20;;;;;;;7.87;51.10;99172.47;5094195;28;20043;-48
2022/04/04 07:03:30;;;;;;;17.15;9.38;;;;;;;7.58;51.13;99178.28;5094222;28;20150;-48
2022/04/04 07:05:56;;;;;;;13.30;8.55;;;;;;;7.42;51.67;99179.16;5094141;28;20063;-47
2022/04/04 07:08:22;;;;;;;18.08;8.38;;;;;;;8.10;52.50;99175.13;5094120;28;20024;-48
2022/04/04 07:10:48;;;;;;;14.43;8.45;;;;;;;9.74;50.99;99171.09;5094078;28;20020;-49
2022/04/04 07:13:15;;;;;;;21.25;9.20;;;;;;;11.32;48.64;99164.06;5092618;28;20024;-48
2022/04/04 07:15:41;;;;;;;22.35;8.32;;;;;;;12.78;46.45;99157.66;5093955;28;20024;-49
2022/04/04 07:18:08;;;;;;;10.80;7.53;;;;;;;13.82;43.73;99160.50;5093906;28;20016;-48
2022/04/04 07:20:34;;;;;;;10.35;7.43;;;;;;;14.65;41.72;99157.00;5093877;28;20028;-49
2022/04/04 07:23:00;;;;;;;11.68;8.07;;;;;;;15.31;40.53;99161.72;5092490;28;20028;-49
2022/04/04 07:25:28;;;;;;;8.68;7.78;;;;;;;16.06;38.13;99158.00;5093755;28;20046;-49
2022/04/04 07:27:54;;;;;;;12.68;8.23;;;;;;;16.68;36.90;99156.88;5093697;28;20016;-49
2022/04/04 07:30:23;;;;;;;14.70;7.85;;;;;;;17.16;34.82;99156.72;5092157;28;20097;-49
2022/04/04 07:32:50;;;;;;;13.48;8.20;;;;;;;17.73;33.39;99157.91;5093606;28;20024;-49
2022/04/04 07:35:17;;;;;;;16.23;7.38;;;;;;;18.10;32.68;99163.69;5092235;28;20020;-50
2022/04/04 07:37:45;;;;;;;10.80;7.43;;;;;;;18.39;32.09;99155.69;5093520;28;20045;-50
2022/04/04 07:40:14;;;;;;;11.35;7.25;;;;;;;18.68;31.27;99167.06;5093456;28;20024;-49
2022/04/04 07:42:42;;;;;;;11.98;6.95;;;;;;;18.84;30.60;99165.50;5093471;28;20458;-49
2022/04/04 07:45:10;;;;;;;24.55;8.10;;;;;;;19.09;30.42;99161.59;5091190;28;20053;-49
2022/04/04 07:47:36;;;;;;;18.95;7.72;;;;;;;19.59;29.64;99159.88;5092057;28;20036;-49
2022/04/04 07:50:04;;;;;;;20.02;8.18;;;;;;;19.84;29.14;99162.88;5091961;28;20024;-50
2022/04/04 07:52:30;;;;;;;18.35;7.18;;;;;;;20.19;28.76;99155.50;5091849;28;20119;-50
2022/04/04 07:54:56;;;;;;;16.65;7.97;;;;;;;20.47;28.28;99165.88;5093156;28;20398;-50
2022/04/04 07:57:23;;;;;;;21.00;7.65;;;;;;;20.85;27.32;99158.75;5093195;28;20024;-50
2022/04/04 07:59:51;;;;;;;27.50;9.48;;;;;;;21.47;26.60;99169.81;5091836;28;20028;-50
2022/04/04 08:02:20;;;;;;;20.10;7.95;;;;;;;21.78;26.38;99164.63;5093077;28;20040;-50
2022/04/04 08:04:46;;;;;;;19.30;7.50;;;;;;;22.22;25.23;99164.19;5093063;28;20139;-50
2022/04/04 08:07:13;;;;;;;17.45;7.60;;;;;;;22.61;24.55;99161.81;5091675;28;20035;-50
2022/04/04 08:09:39;;;;;;;17.67;7.72;;;;;;;22.89;24.14;99162.34;5093073;28;20097;-50
2022/04/04 08:12:05;;;;;;;26.55;8.80;;;;;;;22.96;24.07;99162.91;5091504;28;20024;-50
2022/04/04 08:14:31;;;;;;;17.15;8.52;;;;;;;23.03;23.56;99157.28;5091530;28;20024;-50
2022/04/04 08:16:57;;;;;;;14.25;8.30;;;;;;;23.12;23.20;99161.81;5092810;28;20032;-50
2022/04/04 08:19:23;;;;;;;21.75;8.48;;;;;;;23.41;23.00;99169.22;5091486;28;20020;-50
2022/04/04 08:21:49;;;;;;;18.65;7.78;;;;;;;23.42;22.80;99159.31;5091353;28;20039;-50
2022/04/04 08:24:15;;;;;;;11.90;7.25;;;;;;;23.59;22.46;99159.78;5092720;28;20468;-50
2022/04/04 08:26:42;;;;;;;13.95;7.35;;;;;;;23.62;22.16;99159.22;5091297;28;20032;-50
2022/04/04 08:29:09;;;;;;;15.27;7.57;;;;;;;23.80;22.32;99163.19;5092334;28;20043;-50
2022/04/04 08:31:35;;;;;;;16.90;8.10;;;;;;;24.06;21.39;99155.03;5092487;28;20020;-51
2022/04/04 08:34:01;;;;;;;15.93;8.27;;;;;;;24.27;21.46;99158.38;5091158;28;20028;-50
2022/04/04 08:36:29;;;;;;;12.20;7.43;;;;;;;24.05;21.67;99159.59;5092364;28;20050;-50
2022/04/04 08:38:54;;;;;;;13.27;7.40;;;;;;;24.14;21.45;99157.13;5091136;28;20115;-50
2022/04/04 08:41:22;;;;;;;12.85;7.07;;;;;;;23.90;21.52;99148.94;5092368;28;20536;-51
2022/04/04 08:43:51;;;;;;;11.75;8.05;;;;;;;23.47;21.61;99157.41;5091041;28;20020;-50
2022/04/04 08:46:18;;;;;;;11.35;8.40;;;;;;;22.13;22.76;99162.03;5090957;28;20585;-50
2022/04/04 08:48:44;;;;;;;14.90;7.95;;;;;;;22.45;23.30;99150.31;5092301;28;20053;-50
2022/04/04 08:51:10;;;;;;;15.25;8.02;;;;;;;23.21;22.52;99154.03;5090798;28;20028;-51
2022/04/04 08:53:38;;;;;;;18.40;8.48;;;;;;;23.42;21.87;99160.13;5092217;28;20017;-51
2022/04/04 08:56:06;;;;;;;17.90;8.57;;;;;;;23.56;22.25;99157.66;5092087;28;20077;-50
2022/04/04 08:58:33;;;;;;;20.42;8.90;;;;;;;23.57;22.22;99159.25;5090820;28;20020;-49
2022/04/04 09:00:59;;;;;;;14.00;7.47;;;;;;;23.88;21.57;99154.56;5090762;28;20069;-50
2022/04/04 09:03:35;;;;;;;19.55;8.23;;;;;;;24.02;21.04;99157.44;5092063;28;20095;-50
2022/04/04 09:06:05;;;;;;;15.75;8.05;;;;;;;23.95;21.28;99151.63;5092096;28;20059;-50
2022/04/04 09:08:44;;;;;;;14.68;8.27;;;;;;;24.07;21.60;99156.66;5092078;28;20024;-50
2022/04/04 09:11:10;;;;;;;18.25;9.07;;;;;;;23.30;21.92;99163.13;5091971;28;20503;-50
2022/04/04 09:13:35;;;;;;;15.82;8.68;;;;;;;23.08;22.08;99165.28;5091956;28;20119;-51
2022/04/04 09:16:04;;;;;;;10.13;7.85;;;;;;;23.07;21.96;99158.34;5090539;28;20165;-51
2022/04/04 09:18:41;;;;;;;13.85;8.40;;;;;;;22.76;22.18;99150.34;5091856;28;20833;-51
2022/04/04 09:21:11;;;;;;;11.48;7.82;;;;;;;22.36;22.24;99153.81;5091806;28;20028;-50
2022/04/04 09:23:46;;;;;;;12.05;8.73;;;;;;;22.22;22.52;99150.81;5090521;28;20030;-50
2022/04/04 09:26:29;;;;;;;16.92;8.57;;;;;;;23.23;21.89;99145.72;5091844;28;20024;-50
2022/04/04 09:29:01;;;;;;;9.82;8.02;;;;;;;23.44;20.91;99149.13;5091453;28;20046;-50
2022/04/04 09:31:28;;;;;;;12.43;8.60;;;;;;;23.82;20.41;99147.63;5091708;28;20032;-50
2022/04/04 09:33:59;;;;;;;13.70;8.73;;;;;;;24.37;20.14;99141.41;5091793;28;20443;-50
2022/04/04 09:36:25;;;;;;;13.80;8.10;;;;;;;24.70;19.66;99137.94;5091769;28;20548;-50
2022/04/04 09:39:02;;;;;;;11.50;9.18;;;;;;;24.93;19.53;99135.56;5090412;28;20108;-50
2022/04/04 09:41:28;;;;;;;19.70;8.10;;;;;;;25.04;18.71;99138.97;5091747;28;20032;-50
2022/04/04 09:43:56;;;;;;;9.18;8.00;;;;;;;24.92;18.49;99134.78;5091607;28;20024;-49
2022/04/04 09:46:23;;;;;;;16.52;8.75;;;;;;;23.90;19.40;99141.72;5091642;28;20460;-49
2022/04/04 09:49:09;;;;;;;11.02;8.15;;;;;;;24.49;19.79;99139.97;5073559;28;20020;-48
2022/04/04 09:51:34;;;;;;;8.25;7.45;;;;;;;25.28;18.90;99133.63;5091545;28;20020;-50
2022/04/04 09:54:03;;;;;;;10.35;8.02;;;;;;;25.35;18.54;99135.97;5090225;28;20035;-51
2022/04/04 09:56:29;;;;;;;9.50;8.00;;;;;;;25.92;18.33;99131.50;5091550;28;20097;-50
2022/04/04 09:58:58;;;;;;;9.63;8.10;;;;;;;26.34;17.98;99127.09;5090241;28;20025;-51
2022/04/04 10:01:25;;;;;;;14.63;8.38;;;;;;;25.47;18.06;99133.66;5091536;28;20050;-49
2022/04/04 10:03:52;;;;;;;10.43;8.30;;;;;;;23.41;19.62;99141.66;5091475;28;20020;-50
2022/04/04 10:06:20;;;;;;;8.73;7.97;;;;;;;21.62;21.12;99140.50;5091418;28;20051;-50
2022/04/04 10:08:51;;;;;;;11.95;8.38;;;;;;;20.99;21.88;99136.94;5092448;28;20024;-50
2022/04/04 10:11:17;;;;;;;8.18;7.38;;;;;;;21.84;21.26;99129.63;5095198;28;20059;-49
2022/04/04 10:13:46;;;;;;;9.98;7.45;;;;;;;22.72;20.20;99130.53;5093812;28;20394;-49
2022/04/04 10:16:13;;;;;;;8.57;7.88;;;;;;;23.86;19.74;99121.88;5095167;28;20020;-50
2022/04/04 10:18:42;;;;;;;8.43;7.53;;;;;;;25.05;18.94;99114.53;5093796;28;20020;-50
2022/04/04 10:21:08;;;;;;;8.68;7.97;;;;;;;26.03;17.68;99110.63;5093735;28;20042;-51
2022/04/04 10:23:37;;;;;;;11.60;7.43;;;;;;;26.35;17.52;99115.22;5095029;28;20024;-50
2022/04/04 10:26:06;;;;;;;9.50;7.72;;;;;;;26.90;17.08;99111.88;5093614;28;20498;-51
2022/04/04 10:28:35;;;;;;;9.02;6.97;;;;;;;27.42;16.30;99106.31;5094675;28;20043;-51
2022/04/04 10:31:10;;;;;;;8.23;7.40;;;;;;;27.89;16.17;99104.28;5093533;28;20028;-52
2022/04/04 10:33:36;;;;;;;9.65;7.57;;;;;;;28.21;15.51;99105.13;5093577;28;20028;-50
2022/04/04 10:36:04;;;;;;;7.78;7.07;;;;;;;28.16;15.70;99103.34;5093448;28;20603;-51
2022/04/04 10:38:32;;;;;;;7.38;6.78;;;;;;;28.19;15.53;99093.84;5093446;28;20024;-50
2022/04/04 10:41:01;;;;;;;8.05;7.20;;;;;;;28.51;15.47;99097.41;5093301;28;20020;-51
2022/04/04 10:43:32;;;;;;;9.65;6.47;;;;;;;28.49;15.24;99095.81;5093321;28;20036;-51
2022/04/04 10:46:01;;;;;;;9.50;6.70;;;;;;;28.49;14.93;99089.56;5093448;28;20028;-51
2022/04/04 10:48:49;;;;;;;9.38;6.20;;;;;;;28.82;14.71;99082.00;5093608;28;20096;-50
2022/04/04 10:51:28;;;;;;;10.70;7.07;;;;;;;27.18;14.97;99091.13;5094452;28;20056;-50
2022/04/04 10:54:10;;;;;;;7.88;7.13;;;;;;;24.38;17.08;99097.41;5093131;28;20032;-50
2022/04/04 10:56:42;;;;;;;9.05;7.28;;;;;;;22.27;18.53;99092.81;5094338;28;20107;-50
2022/04/04 10:59:20;;;;;;;9.85;7.15;;;;;;;20.81;20.26;99088.28;5094368;28;20051;-50
2022/04/04 11:01:50;;;;;;;10.15;7.20;;;;;;;21.55;20.13;99086.53;5094307;28;20497;-50
2022/04/04 11:04:26;;;;;;;10.80;7.72;;;;;;;22.70;19.47;99077.28;5094228;28;20519;-49
2022/04/04 11:10:07;;;;;;;7.65;6.95;;;;;;;25.04;17.31;99059.19;5094414;28;20030;-50
2022/04/04 11:13:03;;;;;;;8.18;7.35;;;;;;;23.65;17.47;99059.53;5092803;28;20445;-50
2022/04/04 11:15:49;;;;;;;7.40;6.55;;;;;;;21.90;19.00;99060.97;5093986;28;20043;-50
2022/04/04 11:18:15;;;;;;;15.40;7.53;;;;;;;20.69;19.84;99066.34;5094009;28;20035;-50
2022/04/04 11:20:48;;;;;;;9.05;7.03;;;;;;;21.24;19.98;99064.22;5091240;28;20031;-51
2022/04/04 11:23:14;;;;;;;12.43;7.70;;;;;;;21.14;19.67;99057.78;5093906;28;20038;-49
2022/04/04 11:25:52;;;;;;;8.57;7.20;;;;;;;20.37;19.54;99056.50;5093811;28;20028;-51
2022/04/04 11:28:20;;;;;;;7.15;6.55;;;;;;;20.45;19.47;99057.91;5092508;28;20032;-51
2022/04/04 11:30:47;;;;;;;13.85;7.25;;;;;;;21.61;19.25;99055.28;5093517;28;20055;-50
2022/04/04 11:33:22;;;;;;;9.80;7.20;;;;;;;23.10;18.59;99046.16;5092303;28;20405;-50